Time,TemperatureF,DewpointF,PressureIn,WindDirection,WindDirectionDegrees,WindSpeedMPH,WindSpeedGustMPH,Humidity,HourlyPrecipIn,Conditions,Clouds,dailyrainin,SoftwareType,DateUTC
2013-04-04 00:01:00,52.0,51.0,30.03,SSW,198,0.0,0.0,96,0.00,,,0.01,,2013-04-04 07:01:00,
2013-04-04 00:11:00,52.0,51.0,30.03,SSW,198,0.0,0.0,96,0.00,,,0.01,,2013-04-04 07:11:00,
2013-04-04 00:21:00,53.0,52.0,30.03,SSW,198,0.0,0.0,96,0.00,,,0.01,,2013-04-04 07:21:00,
2013-04-04 00:31:00,53.0,52.0,30.03,SSW,198,0.0,0.0,96,0.00,,,0.01,,2013-04-04 07:31:00,
2013-04-04 00:42:00,53.0,52.0,30.03,SSW,198,0.0,0.0,96,0.00,,,0.01,,2013-04-04 07:42:00,
2013-04-04 00:52:00,51.0,50.0,30.03,SSW,205,1.0,4.0,96,0.00,,,0.01,,2013-04-04 07:52:00,
2013-04-04 01:01:00,51.0,50.0,30.03,SSW,210,0.0,4.0,97,0.00,,,0.01,,2013-04-04 08:01:00,
2013-04-04 01:11:00,51.0,50.0,30.03,SSW,210,0.0,4.0,97,0.00,,,0.01,,2013-04-04 08:11:00,
2013-04-04 01:22:00,51.0,50.0,30.04,SSW,210,0.0,2.0,98,0.00,,,0.01,,2013-04-04 08:22:00,
2013-04-04 01:32:00,51.0,50.0,30.05,SSW,211,1.0,2.0,98,0.00,,,0.01,,2013-04-04 08:32:00,
2013-04-04 01:42:00,51.0,50.0,30.05,SSW,211,1.0,2.0,98,0.00,,,0.01,,2013-04-04 08:42:00,
2013-04-04 01:52:00,51.0,51.0,30.05,SSW,211,1.0,2.0,99,0.00,,,0.01,,2013-04-04 08:52:00,
2013-04-04 02:02:00,51.0,51.0,30.06,SSW,210,0.0,2.0,99,0.00,,,0.01,,2013-04-04 09:02:00,
2013-04-04 02:12:00,51.0,51.0,30.06,SSW,210,0.0,2.0,99,0.00,,,0.01,,2013-04-04 09:12:00,
2013-04-04 02:22:00,50.0,50.0,30.06,ENE,74,2.0,4.0,99,0.00,,,0.01,,2013-04-04 09:22:00,
2013-04-04 02:32:00,51.0,51.0,30.05,East,95,1.0,6.0,99,0.00,,,0.01,,2013-04-04 09:32:00,
2013-04-04 02:42:00,51.0,51.0,30.05,East,95,1.0,6.0,99,0.00,,,0.01,,2013-04-04 09:42:00,
2013-04-04 02:53:00,51.0,51.0,30.06,West,281,2.0,4.0,99,0.00,,,0.01,,2013-04-04 09:53:00,
2013-04-04 03:03:00,51.0,51.0,30.06,West,265,0.0,4.0,99,0.00,,,0.01,,2013-04-04 10:03:00,
2013-04-04 03:12:00,51.0,51.0,30.06,West,265,0.0,4.0,99,0.00,,,0.01,,2013-04-04 10:12:00,
2013-04-04 03:23:00,52.0,52.0,30.06,West,265,1.0,2.0,99,0.00,,,0.01,,2013-04-04 10:23:00,
2013-04-04 03:32:00,52.0,52.0,30.05,West,265,0.0,0.0,99,0.00,,,0.01,,2013-04-04 10:32:00,
2013-04-04 03:42:00,52.0,52.0,30.05,West,265,0.0,0.0,99,0.00,,,0.01,,2013-04-04 10:42:00,
2013-04-04 03:53:00,52.0,52.0,30.05,West,265,0.0,0.0,100,0.00,,,0.01,,2013-04-04 10:53:00,
2013-04-04 04:02:00,52.0,52.0,30.04,West,265,0.0,2.0,99,0.00,,,0.01,,2013-04-04 11:02:00,
2013-04-04 04:12:00,52.0,52.0,30.04,West,265,0.0,2.0,99,0.00,,,0.01,,2013-04-04 11:12:00,
2013-04-04 04:21:00,51.0,51.0,30.04,West,264,0.0,0.0,100,0.00,,,0.01,,2013-04-04 11:21:00,
2013-04-04 04:32:00,51.0,51.0,30.04,West,265,0.0,0.0,99,0.00,,,0.01,,2013-04-04 11:32:00,
2013-04-04 04:42:00,51.0,51.0,30.04,West,265,0.0,0.0,99,0.00,,,0.01,,2013-04-04 11:42:00,
2013-04-04 04:53:00,51.0,51.0,30.03,West,264,0.0,0.0,100,0.00,,,0.01,,2013-04-04 11:53:00,
2013-04-04 05:02:00,51.0,51.0,30.03,West,264,0.0,0.0,100,0.00,,,0.01,,2013-04-04 12:02:00,
2013-04-04 05:12:00,51.0,51.0,30.03,West,264,0.0,0.0,100,0.00,,,0.01,,2013-04-04 12:12:00,
2013-04-04 05:22:00,51.0,51.0,30.02,West,265,1.0,2.0,100,0.00,,,0.00,,2013-04-04 12:22:00,
2013-04-04 05:32:00,51.0,51.0,30.03,West,264,0.0,1.0,100,0.00,,,0.00,,2013-04-04 12:32:00,
2013-04-04 05:42:00,51.0,51.0,30.03,West,264,0.0,1.0,100,0.00,,,0.00,,2013-04-04 12:42:00,
2013-04-04 05:52:00,51.0,51.0,30.03,West,265,0.0,2.0,100,0.00,,,0.00,,2013-04-04 12:52:00,
2013-04-04 06:02:00,51.0,51.0,30.03,West,265,0.0,1.0,100,0.00,,,0.00,,2013-04-04 13:02:00,
2013-04-04 06:12:00,51.0,51.0,30.03,West,265,0.0,1.0,100,0.00,,,0.00,,2013-04-04 13:12:00,
2013-04-04 06:22:00,51.0,51.0,30.05,WSW,242,0.0,6.0,100,0.00,,,0.00,,2013-04-04 13:22:00,
2013-04-04 06:32:00,51.0,51.0,30.05,WSW,242,0.0,1.0,100,0.00,,,0.00,,2013-04-04 13:32:00,
2013-04-04 06:42:00,51.0,51.0,30.05,WSW,242,0.0,1.0,100,0.00,,,0.00,,2013-04-04 13:42:00,
2013-04-04 06:52:00,51.0,51.0,30.05,WSW,242,0.0,3.0,100,0.00,,,0.00,,2013-04-04 13:52:00,
2013-04-04 07:02:00,51.0,51.0,30.05,WSW,252,2.0,3.0,100,0.00,,,0.00,,2013-04-04 14:02:00,
2013-04-04 07:12:00,51.0,51.0,30.05,WSW,252,2.0,3.0,100,0.00,,,0.00,,2013-04-04 14:12:00,
2013-04-04 07:22:00,51.0,51.0,30.06,WSW,252,1.0,4.0,100,0.00,,,0.00,,2013-04-04 14:22:00,
2013-04-04 07:32:00,51.0,51.0,30.06,WSW,249,0.0,5.0,100,0.00,,,0.00,,2013-04-04 14:32:00,
2013-04-04 07:42:00,51.0,51.0,30.06,WSW,249,0.0,5.0,100,0.00,,,0.00,,2013-04-04 14:42:00,
2013-04-04 07:52:00,51.0,51.0,30.08,WSW,245,0.0,2.0,100,0.00,,,0.00,,2013-04-04 14:52:00,
2013-04-04 08:01:00,51.0,51.0,30.08,WSW,245,0.0,0.0,100,0.00,,,0.00,,2013-04-04 15:01:00,
2013-04-04 08:12:00,51.0,51.0,30.08,WSW,245,0.0,0.0,100,0.00,,,0.00,,2013-04-04 15:12:00,
2013-04-04 08:22:00,51.0,51.0,30.09,WSW,245,0.0,2.0,100,0.00,,,0.00,,2013-04-04 15:22:00,
2013-04-04 08:32:00,52.0,52.0,30.09,WSW,245,0.0,0.0,100,0.00,,,0.00,,2013-04-04 15:32:00,
2013-04-04 08:42:00,52.0,52.0,30.09,WSW,245,0.0,0.0,100,0.00,,,0.00,,2013-04-04 15:42:00,
2013-04-04 08:53:00,52.0,52.0,30.09,WSW,245,0.0,2.0,100,0.00,,,0.00,,2013-04-04 15:53:00,
2013-04-04 09:02:00,52.0,52.0,30.09,WSW,245,0.0,2.0,99,0.00,,,0.00,,2013-04-04 16:02:00,
2013-04-04 09:12:00,52.0,52.0,30.09,WSW,245,0.0,2.0,99,0.00,,,0.00,,2013-04-04 16:12:00,
2013-04-04 09:23:00,53.0,53.0,30.08,WSW,246,0.0,3.0,99,0.00,,,0.00,,2013-04-04 16:23:00,
2013-04-04 09:32:00,53.0,52.0,30.07,NW,322,2.0,5.0,98,0.00,,,0.00,,2013-04-04 16:32:00,
2013-04-04 09:42:00,53.0,52.0,30.07,NW,322,2.0,5.0,98,0.00,,,0.00,,2013-04-04 16:42:00,
2013-04-04 09:53:00,56.0,54.0,30.08,WNW,290,1.0,5.0,93,0.00,,,0.00,,2013-04-04 16:53:00,
2013-04-04 10:02:00,57.0,54.0,30.08,WNW,291,0.0,4.0,89,0.00,,,0.00,,2013-04-04 17:02:00,
2013-04-04 10:12:00,57.0,54.0,30.08,WNW,291,0.0,4.0,89,0.00,,,0.00,,2013-04-04 17:12:00,
2013-04-04 10:22:00,58.0,54.0,30.08,SSW,213,1.0,7.0,87,0.00,,,0.00,,2013-04-04 17:22:00,
2013-04-04 10:32:00,60.0,55.0,30.08,WSW,246,2.0,7.0,84,0.00,,,0.00,,2013-04-04 17:32:00,
2013-04-04 10:42:00,60.0,55.0,30.08,WSW,246,2.0,7.0,84,0.00,,,0.00,,2013-04-04 17:42:00,
2013-04-04 10:52:00,62.0,56.0,30.09,WSW,242,2.0,7.0,80,0.00,,,0.00,,2013-04-04 17:52:00,
2013-04-04 11:02:00,63.0,55.0,30.09,SW,223,2.0,6.0,75,0.00,,,0.00,,2013-04-04 18:02:00,
2013-04-04 11:12:00,63.0,55.0,30.09,SW,223,2.0,6.0,75,0.00,,,0.00,,2013-04-04 18:12:00,
2013-04-04 11:22:00,62.0,55.0,30.09,SSW,202,1.0,6.0,77,0.00,,,0.00,,2013-04-04 18:22:00,
2013-04-04 11:32:00,62.0,55.0,30.09,SW,223,2.0,7.0,79,0.00,,,0.00,,2013-04-04 18:32:00,
2013-04-04 11:42:00,62.0,55.0,30.09,SW,223,2.0,7.0,79,0.00,,,0.00,,2013-04-04 18:42:00,
2013-04-04 11:52:00,62.0,55.0,30.09,WSW,252,4.0,9.0,79,0.00,,,0.00,,2013-04-04 18:52:00,
2013-04-04 12:02:00,62.0,55.0,30.09,WSW,239,3.0,7.0,78,0.00,,,0.00,,2013-04-04 19:02:00,
2013-04-04 12:12:00,62.0,55.0,30.09,WSW,239,3.0,7.0,78,0.00,,,0.00,,2013-04-04 19:12:00,
2013-04-04 12:21:00,62.0,54.0,30.08,SW,215,1.0,5.0,76,0.00,,,0.00,,2013-04-04 19:21:00,
2013-04-04 12:32:00,62.0,54.0,30.07,SW,225,2.0,6.0,76,0.00,,,0.00,,2013-04-04 19:32:00,
2013-04-04 12:42:00,62.0,54.0,30.07,SW,225,2.0,6.0,76,0.00,,,0.00,,2013-04-04 19:42:00,
2013-04-04 12:52:00,64.0,55.0,30.06,SW,222,3.0,4.0,72,0.00,,,0.00,,2013-04-04 19:52:00,
2013-04-04 13:02:00,66.0,56.0,30.06,West,264,1.0,5.0,70,0.00,,,0.00,,2013-04-04 20:02:00,
2013-04-04 13:12:00,66.0,56.0,30.06,West,264,1.0,5.0,70,0.00,,,0.00,,2013-04-04 20:12:00,
2013-04-04 13:22:00,70.0,57.0,30.05,SSW,205,2.0,10.0,64,0.00,,,0.00,,2013-04-04 20:22:00,
2013-04-04 13:42:00,71.0,59.0,30.04,WSW,242,2.0,6.0,65,0.00,,,0.00,,2013-04-04 20:42:00,
2013-04-04 13:52:00,71.0,57.0,30.03,SE,133,6.0,10.0,62,0.00,,,0.00,,2013-04-04 20:52:00,
2013-04-04 14:02:00,71.0,57.0,30.03,WSW,250,2.0,10.0,62,0.00,,,0.00,,2013-04-04 21:02:00,
2013-04-04 14:11:00,71.0,57.0,30.03,WSW,250,2.0,10.0,62,0.00,,,0.00,,2013-04-04 21:11:00,
2013-04-04 14:22:00,71.0,57.0,30.02,SSW,200,3.0,7.0,61,0.00,,,0.00,,2013-04-04 21:22:00,
2013-04-04 14:32:00,72.0,57.0,30.02,SW,215,4.0,8.0,59,0.00,,,0.00,,2013-04-04 21:32:00,
2013-04-04 14:42:00,72.0,57.0,30.02,SW,215,4.0,8.0,59,0.00,,,0.00,,2013-04-04 21:42:00,
2013-04-04 14:53:00,70.0,56.0,30.01,WSW,251,4.0,11.0,61,0.00,,,0.00,,2013-04-04 21:53:00,
2013-04-04 15:02:00,70.0,57.0,30.01,WSW,246,4.0,13.0,63,0.00,,,0.00,,2013-04-04 22:02:00,
2013-04-04 15:12:00,70.0,57.0,30.01,WSW,246,4.0,13.0,63,0.00,,,0.00,,2013-04-04 22:12:00,
2013-04-04 15:22:00,71.0,56.0,30.00,SSW,206,4.0,11.0,60,0.00,,,0.00,,2013-04-04 22:22:00,
2013-04-04 15:32:00,70.0,56.0,30.00,West,277,5.0,14.0,62,0.00,,,0.00,,2013-04-04 22:32:00,
2013-04-04 15:42:00,70.0,56.0,30.00,West,277,5.0,14.0,62,0.00,,,0.00,,2013-04-04 22:42:00,
2013-04-04 15:53:00,71.0,57.0,30.00,SSE,150,6.0,14.0,61,0.00,,,0.00,,2013-04-04 22:53:00,
2013-04-04 16:02:00,70.0,56.0,29.99,West,272,8.0,14.0,62,0.00,,,0.00,,2013-04-04 23:02:00,
2013-04-04 16:12:00,70.0,56.0,29.99,West,272,8.0,14.0,62,0.00,,,0.00,,2013-04-04 23:12:00,
2013-04-04 16:22:00,70.0,57.0,29.99,SSW,211,4.0,9.0,63,0.00,,,0.00,,2013-04-04 23:22:00,
2013-04-04 16:31:00,68.0,56.0,30.00,SW,232,3.0,7.0,65,0.00,,,0.00,,2013-04-04 23:31:00,
2013-04-04 16:42:00,68.0,56.0,30.00,SW,232,3.0,7.0,65,0.00,,,0.00,,2013-04-04 23:42:00,
2013-04-04 16:52:00,67.0,56.0,29.99,SW,233,5.0,15.0,67,0.00,,,0.00,,2013-04-04 23:52:00,
2013-04-04 17:01:00,68.0,56.0,29.99,SW,217,4.0,17.0,66,0.00,,,0.00,,2013-04-05 00:01:00,
2013-04-04 17:11:00,68.0,56.0,29.99,SW,217,4.0,17.0,66,0.00,,,0.00,,2013-04-05 00:11:00,
2013-04-04 17:22:00,66.0,56.0,29.98,SSW,196,4.0,10.0,69,0.00,,,0.00,,2013-04-05 00:22:00,
2013-04-04 17:32:00,67.0,56.0,29.98,SSW,199,3.0,10.0,69,0.00,,,0.00,,2013-04-05 00:32:00,
2013-04-04 17:42:00,67.0,56.0,29.98,SSW,199,3.0,10.0,69,0.00,,,0.00,,2013-04-05 00:42:00,
2013-04-04 17:52:00,65.0,55.0,29.98,SSE,150,2.0,11.0,71,0.00,,,0.00,,2013-04-05 00:52:00,
2013-04-04 18:02:00,65.0,55.0,29.98,South,178,3.0,6.0,71,0.00,,,0.00,,2013-04-05 01:02:00,
2013-04-04 18:12:00,65.0,55.0,29.98,South,178,3.0,6.0,71,0.00,,,0.00,,2013-04-05 01:12:00,
2013-04-04 18:22:00,65.0,56.0,29.98,SSW,209,3.0,10.0,72,0.00,,,0.00,,2013-04-05 01:22:00,
2013-04-04 18:32:00,63.0,55.0,29.98,SW,232,1.0,8.0,76,0.00,,,0.00,,2013-04-05 01:32:00,
2013-04-04 18:42:00,63.0,55.0,29.98,SW,232,1.0,8.0,76,0.00,,,0.00,,2013-04-05 01:42:00,
2013-04-04 18:53:00,59.0,54.0,29.99,SSW,193,4.0,12.0,83,0.00,,,0.00,,2013-04-05 01:53:00,
2013-04-04 19:02:00,58.0,54.0,29.99,SSE,161,0.0,6.0,85,0.00,,,0.00,,2013-04-05 02:02:00,
2013-04-04 19:11:00,58.0,54.0,29.99,SSE,161,0.0,6.0,85,0.00,,,0.00,,2013-04-05 02:11:00,
2013-04-04 19:22:00,59.0,54.0,29.98,SSE,163,0.0,3.0,84,0.00,,,0.00,,2013-04-05 02:22:00,
2013-04-04 19:31:00,58.0,54.0,29.98,SSE,165,1.0,3.0,86,0.00,,,0.00,,2013-04-05 02:31:00,
2013-04-04 19:42:00,58.0,54.0,29.98,SSE,165,1.0,3.0,86,0.00,,,0.00,,2013-04-05 02:42:00,
2013-04-04 19:52:00,57.0,53.0,29.99,SW,223,0.0,6.0,88,0.00,,,0.00,,2013-04-05 02:52:00,
2013-04-04 20:01:00,57.0,54.0,29.99,SW,222,0.0,1.0,89,0.00,,,0.00,,2013-04-05 03:01:00,
2013-04-04 20:11:00,57.0,54.0,29.99,SW,222,0.0,1.0,89,0.00,,,0.00,,2013-04-05 03:11:00,
2013-04-04 20:22:00,56.0,54.0,29.99,SW,222,0.0,1.0,92,0.00,,,0.00,,2013-04-05 03:22:00,
2013-04-04 20:32:00,56.0,54.0,29.99,SW,223,0.0,0.0,92,0.00,,,0.00,,2013-04-05 03:32:00,
2013-04-04 20:43:00,56.0,54.0,29.99,SW,223,0.0,0.0,92,0.00,,,0.00,,2013-04-05 03:43:00,
2013-04-04 20:53:00,55.0,53.0,30.01,SW,222,0.0,0.0,93,0.00,,,0.00,,2013-04-05 03:53:00,
2013-04-04 21:02:00,55.0,53.0,30.01,SW,223,0.0,0.0,94,0.00,,,0.00,,2013-04-05 04:02:00,
2013-04-04 21:12:00,55.0,53.0,30.01,SW,223,0.0,0.0,94,0.00,,,0.00,,2013-04-05 04:12:00,
2013-04-04 21:22:00,54.0,52.0,30.02,SW,223,0.0,0.0,94,0.00,,,0.00,,2013-04-05 04:22:00,
2013-04-04 21:32:00,54.0,53.0,30.02,SW,222,0.0,3.0,95,0.00,,,0.00,,2013-04-05 04:32:00,
2013-04-04 21:42:00,54.0,53.0,30.02,SW,222,0.0,3.0,95,0.00,,,0.00,,2013-04-05 04:42:00,
2013-04-04 21:52:00,54.0,53.0,30.03,SW,222,0.0,0.0,96,0.00,,,0.00,,2013-04-05 04:52:00,
2013-04-04 22:02:00,53.0,52.0,30.03,SW,223,0.0,0.0,96,0.00,,,0.00,,2013-04-05 05:02:00,
2013-04-04 22:12:00,53.0,52.0,30.03,SW,223,0.0,0.0,96,0.00,,,0.00,,2013-04-05 05:12:00,
2013-04-04 22:22:00,53.0,52.0,30.03,SW,223,0.0,0.0,96,0.00,,,0.00,,2013-04-05 05:22:00,
2013-04-04 22:31:00,53.0,52.0,30.03,SW,222,0.0,0.0,96,0.00,,,0.00,,2013-04-05 05:31:00,
2013-04-04 22:42:00,53.0,52.0,30.03,SW,222,0.0,0.0,96,0.00,,,0.00,,2013-04-05 05:42:00,
2013-04-04 22:52:00,54.0,53.0,30.04,SW,223,0.0,0.0,97,0.00,,,0.00,,2013-04-05 05:52:00,
2013-04-04 23:02:00,54.0,53.0,30.04,SW,222,0.0,0.0,97,0.00,,,0.00,,2013-04-05 06:02:00,
2013-04-04 23:12:00,54.0,53.0,30.04,SW,222,0.0,0.0,97,0.00,,,0.00,,2013-04-05 06:12:00,
2013-04-04 23:22:00,54.0,53.0,30.04,SW,223,0.0,0.0,97,0.00,,,0.00,,2013-04-05 06:22:00,
2013-04-04 23:32:00,54.0,53.0,30.04,SW,223,0.0,0.0,97,0.00,,,0.00,,2013-04-05 06:32:00,
2013-04-04 23:42:00,54.0,53.0,30.04,SW,223,0.0,0.0,97,0.00,,,0.00,,2013-04-05 06:42:00,
2013-04-04 23:52:00,54.0,53.0,30.05,SW,223,0.0,0.0,97,0.00,,,0.00,,2013-04-05 06:52:00,